sensor_id;sensor_type;location;lat;lon;timestamp;pressure;altitude;pressure_sealevel;temperature;humidity
1616;BME280;801;47.982;7.810;2023-12-20T00:00:59;98906.56;;;7.40;100.00
1616;BME280;801;47.982;7.810;2023-12-20T00:03:26;98889.59;;;7.46;100.00
1616;BME280;801;47.982;7.810;2023-12-20T00:05:53;98886.94;;;7.46;100.00
1616;BME280;801;47.982;7.810;2023-12-20T00:08:20;98871.91;;;7.57;100.00
1616;BME280;801;47.982;7.810;2023-12-20T00:10:47;98868.06;;;7.41;100.00
1616;BME280;801;47.982;7.810;2023-12-20T00:13:13;98869.47;;;7.43;100.00
1616;BME280;801;47.982;7.810;2023-12-20T00:15:40;98848.34;;;7.42;100.00
1616;BME280;801;47.982;7.810;2023-12-20T00:18:06;98852.41;;;7.44;100.00
1616;BME280;801;47.982;7.810;2023-12-20T00:20:33;98854.50;;;7.42;100.00
1616;BME280;801;47.982;7.810;2023-12-20T00:22:59;98840.88;;;7.44;100.00
1616;BME280;801;47.982;7.810;2023-12-20T00:25:27;98832.50;;;7.52;100.00
1616;BME280;801;47.982;7.810;2023-12-20T00:27:54;98829.25;;;7.38;100.00
1616;BME280;801;47.982;7.810;2023-12-20T00:30:20;98840.06;;;7.43;100.00
1616;BME280;801;47.982;7.810;2023-12-20T00:32:47;98827.25;;;7.45;100.00
1616;BME280;801;47.982;7.810;2023-12-20T00:35:13;98855.28;;;7.43;100.00
1616;BME280;801;47.982;7.810;2023-12-20T00:37:40;98852.16;;;7.46;100.00
1616;BME280;801;47.982;7.810;2023-12-20T00:40:07;98849.84;;;7.38;100.00
1616;BME280;801;47.982;7.810;2023-12-20T00:42:35;98867.88;;;7.31;100.00
1616;BME280;801;47.982;7.810;2023-12-20T00:45:02;98855.31;;;7.31;100.00
1616;BME280;801;47.982;7.810;2023-12-20T00:47:30;98836.13;;;7.11;100.00
1616;BME280;801;47.982;7.810;2023-12-20T00:49:57;98826.00;;;7.01;100.00
1616;BME280;801;47.982;7.810;2023-12-20T00:52:23;98848.31;;;7.06;100.00
1616;BME280;801;47.982;7.810;2023-12-20T00:54:50;98848.31;;;6.95;100.00
1616;BME280;801;47.982;7.810;2023-12-20T00:57:17;98841.78;;;6.91;100.00
1616;BME280;801;47.982;7.810;2023-12-20T00:59:45;98840.63;;;6.86;100.00
1616;BME280;801;47.982;7.810;2023-12-20T01:02:11;98844.09;;;6.75;100.00
1616;BME280;801;47.982;7.810;2023-12-20T01:04:38;98845.69;;;6.76;100.00
1616;BME280;801;47.982;7.810;2023-12-20T01:07:04;98849.44;;;6.75;100.00
1616;BME280;801;47.982;7.810;2023-12-20T01:09:31;98850.00;;;6.65;100.00
1616;BME280;801;47.982;7.810;2023-12-20T01:11:57;98861.47;;;6.66;100.00
1616;BME280;801;47.982;7.810;2023-12-20T01:14:24;98846.63;;;6.70;100.00
1616;BME280;801;47.982;7.810;2023-12-20T01:16:52;98830.94;;;6.62;100.00
1616;BME280;801;47.982;7.810;2023-12-20T01:19:18;98846.63;;;6.70;100.00
1616;BME280;801;47.982;7.810;2023-12-20T01:21:45;98851.25;;;6.63;100.00
1616;BME280;801;47.982;7.810;2023-12-20T01:24:11;98840.34;;;6.64;100.00
1616;BME280;801;47.982;7.810;2023-12-20T01:26:38;98846.25;;;6.67;100.00
1616;BME280;801;47.982;7.810;2023-12-20T01:29:04;98851.13;;;6.58;100.00
1616;BME280;801;47.982;7.810;2023-12-20T01:31:31;98863.66;;;6.57;100.00
1616;BME280;801;47.982;7.810;2023-12-20T01:34:00;98834.50;;;6.56;100.00
1616;BME280;801;47.982;7.810;2023-12-20T01:36:26;98841.72;;;6.67;100.00
1616;BME280;801;47.982;7.810;2023-12-20T01:38:53;98845.66;;;6.53;100.00
1616;BME280;801;47.982;7.810;2023-12-20T01:41:20;98851.00;;;6.53;100.00
1616;BME280;801;47.982;7.810;2023-12-20T01:43:46;98850.78;;;6.54;100.00
1616;BME280;801;47.982;7.810;2023-12-20T01:46:13;98853.66;;;6.53;100.00
1616;BME280;801;47.982;7.810;2023-12-20T01:48:40;98859.91;;;6.47;100.00
1616;BME280;801;47.982;7.810;2023-12-20T01:51:08;98854.38;;;6.60;100.00
1616;BME280;801;47.982;7.810;2023-12-20T01:53:35;98844.75;;;6.59;100.00
1616;BME280;801;47.982;7.810;2023-12-20T01:56:02;98870.72;;;6.52;100.00
1616;BME280;801;47.982;7.810;2023-12-20T01:58:28;98848.00;;;6.61;100.00
1616;BME280;801;47.982;7.810;2023-12-20T02:00:57;98839.75;;;6.62;100.00
1616;BME280;801;47.982;7.810;2023-12-20T02:03:23;98831.25;;;6.54;100.00
1616;BME280;801;47.982;7.810;2023-12-20T02:05:51;98833.31;;;6.52;100.00
1616;BME280;801;47.982;7.810;2023-12-20T02:08:19;98831.16;;;6.60;100.00
1616;BME280;801;47.982;7.810;2023-12-20T02:10:45;98831.25;;;6.54;100.00
1616;BME280;801;47.982;7.810;2023-12-20T02:13:12;98829.97;;;6.56;100.00
1616;BME280;801;47.982;7.810;2023-12-20T02:15:38;98829.75;;;6.58;100.00
1616;BME280;801;47.982;7.810;2023-12-20T02:18:07;98830.31;;;6.48;100.00
1616;BME280;801;47.982;7.810;2023-12-20T02:20:33;98825.47;;;6.57;100.00
1616;BME280;801;47.982;7.810;2023-12-20T02:23:01;98834.41;;;6.62;100.00
1616;BME280;801;47.982;7.810;2023-12-20T02:25:28;98827.66;;;6.48;100.00
1616;BME280;801;47.982;7.810;2023-12-20T02:27:54;98844.47;;;6.49;100.00
1616;BME280;801;47.982;7.810;2023-12-20T02:30:21;98828.09;;;6.45;100.00
1616;BME280;801;47.982;7.810;2023-12-20T02:32:49;98830.06;;;6.50;100.00
1616;BME280;801;47.982;7.810;2023-12-20T02:35:16;98824.28;;;6.53;100.00
1616;BME280;801;47.982;7.810;2023-12-20T02:37:42;98816.00;;;6.42;100.00
1616;BME280;801;47.982;7.810;2023-12-20T02:40:12;98829.59;;;6.41;100.00
1616;BME280;801;47.982;7.810;2023-12-20T02:42:38;98813.94;;;6.44;100.00
1616;BME280;801;47.982;7.810;2023-12-20T02:45:06;98817.16;;;6.35;100.00
1616;BME280;801;47.982;7.810;2023-12-20T02:47:32;98811.25;;;6.44;100.00
1616;BME280;801;47.982;7.810;2023-12-20T02:49:59;98830.72;;;6.33;100.00
1616;BME280;801;47.982;7.810;2023-12-20T02:52:28;98834.34;;;6.39;100.00
1616;BME280;801;47.982;7.810;2023-12-20T02:54:54;98831.91;;;6.37;100.00
1616;BME280;801;47.982;7.810;2023-12-20T02:57:22;98822.28;;;6.36;100.00
1616;BME280;801;47.982;7.810;2023-12-20T02:59:49;98825.88;;;6.42;100.00
1616;BME280;801;47.982;7.810;2023-12-20T03:02:15;98839.91;;;6.37;100.00
1616;BME280;801;47.982;7.810;2023-12-20T03:04:43;98832.38;;;6.34;100.00
1616;BME280;801;47.982;7.810;2023-12-20T03:07:11;98845.81;;;6.28;100.00
1616;BME280;801;47.982;7.810;2023-12-20T03:09:38;98830.28;;;6.36;100.00
1616;BME280;801;47.982;7.810;2023-12-20T03:12:06;98833.84;;;6.30;100.00
1616;BME280;801;47.982;7.810;2023-12-20T03:14:37;98836.78;;;6.40;100.00
1616;BME280;801;47.982;7.810;2023-12-20T03:17:03;98836.97;;;6.27;100.00
1616;BME280;801;47.982;7.810;2023-12-20T03:19:30;98839.03;;;6.25;100.00
1616;BME280;801;47.982;7.810;2023-12-20T03:21:56;98847.41;;;6.29;100.00
1616;BME280;801;47.982;7.810;2023-12-20T03:24:32;98847.63;;;6.27;100.00
1616;BME280;801;47.982;7.810;2023-12-20T03:27:00;98856.31;;;6.22;100.00
1616;BME280;801;47.982;7.810;2023-12-20T03:29:27;98857.50;;;6.27;100.00
1616;BME280;801;47.982;7.810;2023-12-20T03:31:55;98856.66;;;6.14;100.00
1616;BME280;801;47.982;7.810;2023-12-20T03:34:21;98865.38;;;6.21;100.00
1616;BME280;801;47.982;7.810;2023-12-20T03:36:48;98842.16;;;6.22;100.00
1616;BME280;801;47.982;7.810;2023-12-20T03:39:14;98855.22;;;6.30;100.00
1616;BME280;801;47.982;7.810;2023-12-20T03:41:41;98856.53;;;6.39;100.00
1616;BME280;801;47.982;7.810;2023-12-20T03:44:07;98862.31;;;6.36;100.00
1616;BME280;801;47.982;7.810;2023-12-20T03:46:34;98862.41;;;6.30;100.00
1616;BME280;801;47.982;7.810;2023-12-20T03:49:02;98866.47;;;6.32;100.00
1616;BME280;801;47.982;7.810;2023-12-20T03:51:28;98850.81;;;6.36;100.00
1616;BME280;801;47.982;7.810;2023-12-20T03:53:55;98866.81;;;6.36;100.00
1616;BME280;801;47.982;7.810;2023-12-20T03:56:21;98867.56;;;6.43;100.00
1616;BME280;801;47.982;7.810;2023-12-20T03:58:48;98856.59;;;6.33;100.00
1616;BME280;801;47.982;7.810;2023-12-20T04:01:14;98858.78;;;6.24;100.00
1616;BME280;801;47.982;7.810;2023-12-20T04:03:41;98864.84;;;6.31;100.00
1616;BME280;801;47.982;7.810;2023-12-20T04:06:09;98863.94;;;6.37;100.00
1616;BME280;801;47.982;7.810;2023-12-20T04:08:35;98858.00;;;6.35;100.00
1616;BME280;801;47.982;7.810;2023-12-20T04:11:02;98870.75;;;6.33;100.00
1616;BME280;801;47.982;7.810;2023-12-20T04:13:28;98863.66;;;6.27;100.00
1616;BME280;801;47.982;7.810;2023-12-20T04:15:55;98860.31;;;6.32;100.00
1616;BME280;801;47.982;7.810;2023-12-20T04:18:21;98843.63;;;6.36;100.00
1616;BME280;801;47.982;7.810;2023-12-20T04:20:48;98849.09;;;6.41;100.00
1616;BME280;801;47.982;7.810;2023-12-20T04:23:16;98850.59;;;6.37;100.00
1616;BME280;801;47.982;7.810;2023-12-20T04:25:43;98867.19;;;6.39;100.00
1616;BME280;801;47.982;7.810;2023-12-20T04:28:09;98876.50;;;6.49;100.00
1616;BME280;801;47.982;7.810;2023-12-20T04:30:36;98875.16;;;6.58;100.00
1616;BME280;801;47.982;7.810;2023-12-20T04:33:03;98874.16;;;6.40;100.00
1616;BME280;801;47.982;7.810;2023-12-20T04:35:29;98887.66;;;6.46;100.00
1616;BME280;801;47.982;7.810;2023-12-20T04:37:56;98895.41;;;6.47;100.00
1616;BME280;801;47.982;7.810;2023-12-20T04:40:23;98893.72;;;6.53;100.00
1616;BME280;801;47.982;7.810;2023-12-20T04:42:50;98907.84;;;6.41;100.00
1616;BME280;801;47.982;7.810;2023-12-20T04:45:16;98897.25;;;6.35;100.00
1616;BME280;801;47.982;7.810;2023-12-20T04:47:44;98900.41;;;6.43;100.00
1616;BME280;801;47.982;7.810;2023-12-20T04:50:12;98909.34;;;6.49;100.00
1616;BME280;801;47.982;7.810;2023-12-20T04:52:39;98899.06;;;6.53;100.00
1616;BME280;801;47.982;7.810;2023-12-20T04:55:06;98902.03;;;6.44;100.00
1616;BME280;801;47.982;7.810;2023-12-20T04:57:35;98894.16;;;6.50;100.00
1616;BME280;801;47.982;7.810;2023-12-20T05:00:01;98903.09;;;6.43;100.00
1616;BME280;801;47.982;7.810;2023-12-20T05:02:28;98909.88;;;6.58;100.00
1616;BME280;801;47.982;7.810;2023-12-20T05:04:55;98915.50;;;6.50;100.00
1616;BME280;801;47.982;7.810;2023-12-20T05:07:21;98907.66;;;6.55;100.00
1616;BME280;801;47.982;7.810;2023-12-20T05:09:47;98905.69;;;6.62;100.00
1616;BME280;801;47.982;7.810;2023-12-20T05:12:14;98895.81;;;6.62;100.00
1616;BME280;801;47.982;7.810;2023-12-20T05:14:42;98897.09;;;6.60;100.00
1616;BME280;801;47.982;7.810;2023-12-20T05:17:08;98905.69;;;6.62;100.00
1616;BME280;801;47.982;7.810;2023-12-20T05:19:34;98906.75;;;6.61;100.00
1616;BME280;801;47.982;7.810;2023-12-20T05:22:01;98913.34;;;6.58;100.00
1616;BME280;801;47.982;7.810;2023-12-20T05:24:27;98911.44;;;6.77;100.00
1616;BME280;801;47.982;7.810;2023-12-20T05:26:54;98911.06;;;6.74;100.00
1616;BME280;801;47.982;7.810;2023-12-20T05:29:20;98915.81;;;6.72;100.00
1616;BME280;801;47.982;7.810;2023-12-20T05:31:48;98923.03;;;6.71;100.00
1616;BME280;801;47.982;7.810;2023-12-20T05:34:15;98926.16;;;6.68;100.00
1616;BME280;801;47.982;7.810;2023-12-20T05:36:41;98927.34;;;6.72;100.00
1616;BME280;801;47.982;7.810;2023-12-20T05:39:08;98927.94;;;6.74;100.00
1616;BME280;801;47.982;7.810;2023-12-20T05:41:34;98934.19;;;6.68;100.00
1616;BME280;801;47.982;7.810;2023-12-20T05:44:01;98934.13;;;6.86;100.00
1616;BME280;801;47.982;7.810;2023-12-20T05:46:27;98933.16;;;6.81;100.00
1616;BME280;801;47.982;7.810;2023-12-20T05:48:55;98931.91;;;6.83;100.00
1616;BME280;801;47.982;7.810;2023-12-20T05:51:22;98941.41;;;6.79;100.00
1616;BME280;801;47.982;7.810;2023-12-20T05:53:48;98945.63;;;6.87;100.00
1616;BME280;801;47.982;7.810;2023-12-20T05:56:16;98943.97;;;6.74;100.00
1616;BME280;801;47.982;7.810;2023-12-20T05:58:42;98942.84;;;6.94;100.00
1616;BME280;801;47.982;7.810;2023-12-20T06:01:09;98953.91;;;6.97;100.00
1616;BME280;801;47.982;7.810;2023-12-20T06:03:35;98951.66;;;6.82;100.00
1616;BME280;801;47.982;7.810;2023-12-20T06:06:06;98960.25;;;6.84;100.00
1616;BME280;801;47.982;7.810;2023-12-20T06:08:33;98950.56;;;6.72;100.00
1616;BME280;801;47.982;7.810;2023-12-20T06:11:00;98962.00;;;6.79;100.00
1616;BME280;801;47.982;7.810;2023-12-20T06:13:26;98953.19;;;6.90;100.00
1616;BME280;801;47.982;7.810;2023-12-20T06:15:54;98964.69;;;6.91;100.00
1616;BME280;801;47.982;7.810;2023-12-20T06:18:20;98966.94;;;6.75;100.00
1616;BME280;801;47.982;7.810;2023-12-20T06:20:47;98960.44;;;6.71;100.00
1616;BME280;801;47.982;7.810;2023-12-20T06:23:15;98966.66;;;6.83;100.00
1616;BME280;801;47.982;7.810;2023-12-20T06:25:41;98966.91;;;6.94;100.00
1616;BME280;801;47.982;7.810;2023-12-20T06:28:08;98973.31;;;6.93;100.00
1616;BME280;801;47.982;7.810;2023-12-20T06:30:35;98969.31;;;6.83;100.00
1616;BME280;801;47.982;7.810;2023-12-20T06:33:02;98974.47;;;6.97;100.00
1616;BME280;801;47.982;7.810;2023-12-20T06:35:29;98976.09;;;6.98;100.00
1616;BME280;801;47.982;7.810;2023-12-20T06:37:55;98972.34;;;6.87;100.00
1616;BME280;801;47.982;7.810;2023-12-20T06:40:25;98973.72;;;6.90;100.00
1616;BME280;801;47.982;7.810;2023-12-20T06:42:52;98979.34;;;7.00;100.00
1616;BME280;801;47.982;7.810;2023-12-20T06:45:18;98980.53;;;7.04;100.00
1616;BME280;801;47.982;7.810;2023-12-20T06:47:45;98986.72;;;7.16;100.00
1616;BME280;801;47.982;7.810;2023-12-20T06:50:12;98985.41;;;7.07;100.00
1616;BME280;801;47.982;7.810;2023-12-20T06:52:38;98988.88;;;6.96;100.00
1616;BME280;801;47.982;7.810;2023-12-20T06:55:05;99001.19;;;6.97;100.00
1616;BME280;801;47.982;7.810;2023-12-20T06:57:33;98992.59;;;6.95;100.00
1616;BME280;801;47.982;7.810;2023-12-20T07:00:01;98995.09;;;6.90;100.00
1616;BME280;801;47.982;7.810;2023-12-20T07:02:28;99009.53;;;6.89;100.00
1616;BME280;801;47.982;7.810;2023-12-20T07:04:55;98999.94;;;6.99;100.00
1616;BME280;801;47.982;7.810;2023-12-20T07:07:22;99005.63;;;7.03;100.00
1616;BME280;801;47.982;7.810;2023-12-20T07:09:49;99005.88;;;6.83;100.00
1616;BME280;801;47.982;7.810;2023-12-20T07:12:16;99010.63;;;6.99;100.00
1616;BME280;801;47.982;7.810;2023-12-20T07:14:46;99012.13;;;7.07;100.00
1616;BME280;801;47.982;7.810;2023-12-20T07:17:12;99018.19;;;7.14;100.00
1616;BME280;801;47.982;7.810;2023-12-20T07:19:40;99027.09;;;7.26;100.00
1616;BME280;801;47.982;7.810;2023-12-20T07:22:07;99015.88;;;7.06;100.00
1616;BME280;801;47.982;7.810;2023-12-20T07:24:34;99032.31;;;7.21;100.00
1616;BME280;801;47.982;7.810;2023-12-20T07:27:01;99034.53;;;7.24;100.00
1616;BME280;801;47.982;7.810;2023-12-20T07:29:28;99042.25;;;7.14;100.00
1616;BME280;801;47.982;7.810;2023-12-20T07:31:56;99050.25;;;7.33;100.00
1616;BME280;801;47.982;7.810;2023-12-20T07:34:22;99052.50;;;7.17;100.00
1616;BME280;801;47.982;7.810;2023-12-20T07:36:49;99053.00;;;7.26;100.00
1616;BME280;801;47.982;7.810;2023-12-20T07:39:16;99058.06;;;7.16;100.00
1616;BME280;801;47.982;7.810;2023-12-20T07:41:42;99057.13;;;7.10;100.00
1616;BME280;801;47.982;7.810;2023-12-20T07:44:09;99076.16;;;7.02;100.00
1616;BME280;801;47.982;7.810;2023-12-20T07:46:35;99062.69;;;7.09;100.00
1616;BME280;801;47.982;7.810;2023-12-20T07:49:05;99064.56;;;6.90;100.00
1616;BME280;801;47.982;7.810;2023-12-20T07:51:33;99062.78;;;7.02;100.00
1616;BME280;801;47.982;7.810;2023-12-20T07:54:02;99062.50;;;7.10;100.00
1616;BME280;801;47.982;7.810;2023-12-20T07:56:30;99077.47;;;7.11;100.00
1616;BME280;801;47.982;7.810;2023-12-20T07:58:56;99068.41;;;7.12;100.00
1616;BME280;801;47.982;7.810;2023-12-20T08:01:23;99075.59;;;7.12;100.00
1616;BME280;801;47.982;7.810;2023-12-20T08:03:49;99080.09;;;7.30;100.00
1616;BME280;801;47.982;7.810;2023-12-20T08:06:18;99083.81;;;7.28;100.00
1616;BME280;801;47.982;7.810;2023-12-20T08:08:44;99067.91;;;7.34;100.00
1616;BME280;801;47.982;7.810;2023-12-20T08:11:11;99072.34;;;7.40;100.00
1616;BME280;801;47.982;7.810;2023-12-20T08:13:43;99075.31;;;7.20;100.00
1616;BME280;801;47.982;7.810;2023-12-20T08:16:10;99082.03;;;6.92;100.00
1616;BME280;801;47.982;7.810;2023-12-20T08:18:38;99081.03;;;7.05;100.00
1616;BME280;801;47.982;7.810;2023-12-20T08:21:08;99086.28;;;7.12;100.00
1616;BME280;801;47.982;7.810;2023-12-20T08:23:36;99093.03;;;7.33;100.00
1616;BME280;801;47.982;7.810;2023-12-20T08:26:10;99089.31;;;7.45;100.00
1616;BME280;801;47.982;7.810;2023-12-20T08:28:46;99099.81;;;7.47;100.00
1616;BME280;801;47.982;7.810;2023-12-20T08:31:16;99094.66;;;7.34;100.00
1616;BME280;801;47.982;7.810;2023-12-20T08:33:49;99095.97;;;7.13;100.00
1616;BME280;801;47.982;7.810;2023-12-20T08:36:16;99096.63;;;7.08;100.00
1616;BME280;801;47.982;7.810;2023-12-20T08:38:49;99104.31;;;7.16;100.00
1616;BME280;801;47.982;7.810;2023-12-20T08:41:20;99111.44;;;7.22;100.00
1616;BME280;801;47.982;7.810;2023-12-20T08:43:51;99115.31;;;7.26;100.00
1616;BME280;801;47.982;7.810;2023-12-20T08:46:23;99118.28;;;7.37;100.00
1616;BME280;801;47.982;7.810;2023-12-20T08:48:52;99122.06;;;7.29;100.00
1616;BME280;801;47.982;7.810;2023-12-20T08:51:20;99121.28;;;7.40;100.00
1616;BME280;801;47.982;7.810;2023-12-20T08:53:50;99123.28;;;7.45;100.00
1616;BME280;801;47.982;7.810;2023-12-20T08:56:25;99131.31;;;7.45;100.00
1616;BME280;801;47.982;7.810;2023-12-20T08:58:52;99130.47;;;7.33;100.00
1616;BME280;801;47.982;7.810;2023-12-20T09:01:21;99135.94;;;7.38;100.00
1616;BME280;801;47.982;7.810;2023-12-20T09:03:48;99140.56;;;7.31;100.00
1616;BME280;801;47.982;7.810;2023-12-20T09:06:16;99135.88;;;7.26;100.00
1616;BME280;801;47.982;7.810;2023-12-20T09:08:51;99137.88;;;7.31;100.00
1616;BME280;801;47.982;7.810;2023-12-20T09:11:18;99149.91;;;7.03;100.00
1616;BME280;801;47.982;7.810;2023-12-20T09:13:44;99143.53;;;7.22;100.00
1616;BME280;801;47.982;7.810;2023-12-20T09:16:13;99144.00;;;7.19;100.00
1616;BME280;801;47.982;7.810;2023-12-20T09:18:41;99155.94;;;7.17;100.00
1616;BME280;801;47.982;7.810;2023-12-20T09:21:10;99156.97;;;7.16;100.00
1616;BME280;801;47.982;7.810;2023-12-20T09:23:39;99157.66;;;7.11;100.00
1616;BME280;801;47.982;7.810;2023-12-20T09:26:09;99162.47;;;7.02;100.00
1616;BME280;801;47.982;7.810;2023-12-20T09:28:38;99171.44;;;6.90;100.00
1616;BME280;801;47.982;7.810;2023-12-20T09:31:05;99177.03;;;6.88;100.00
1616;BME280;801;47.982;7.810;2023-12-20T09:33:32;99176.78;;;6.90;100.00
1616;BME280;801;47.982;7.810;2023-12-20T09:35:59;99175.78;;;6.91;100.00
1616;BME280;801;47.982;7.810;2023-12-20T09:38:26;99170.22;;;6.92;100.00
1616;BME280;801;47.982;7.810;2023-12-20T09:40:53;99175.16;;;6.89;100.00
1616;BME280;801;47.982;7.810;2023-12-20T09:43:24;99170.41;;;6.72;100.00
1616;BME280;801;47.982;7.810;2023-12-20T09:45:52;99170.44;;;6.91;100.00
1616;BME280;801;47.982;7.810;2023-12-20T09:48:19;99168.19;;;7.06;100.00
1616;BME280;801;47.982;7.810;2023-12-20T09:50:46;99168.19;;;7.06;100.00
1616;BME280;801;47.982;7.810;2023-12-20T09:53:15;99179.03;;;7.11;100.00
1616;BME280;801;47.982;7.810;2023-12-20T09:55:42;99171.69;;;7.06;100.00
1616;BME280;801;47.982;7.810;2023-12-20T09:58:09;99188.84;;;6.99;100.00
1616;BME280;801;47.982;7.810;2023-12-20T10:00:40;99172.00;;;7.17;100.00
1616;BME280;801;47.982;7.810;2023-12-20T10:03:08;99172.00;;;7.17;100.00
1616;BME280;801;47.982;7.810;2023-12-20T10:05:43;99174.75;;;7.10;100.00
1616;BME280;801;47.982;7.810;2023-12-20T10:08:14;99174.66;;;7.17;100.00
1616;BME280;801;47.982;7.810;2023-12-20T10:10:44;99169.59;;;7.27;100.00
1616;BME280;801;47.982;7.810;2023-12-20T10:13:16;99175.47;;;7.17;100.00
1616;BME280;801;47.982;7.810;2023-12-20T10:15:47;99178.41;;;7.27;100.00
1616;BME280;801;47.982;7.810;2023-12-20T10:18:32;99171.41;;;7.15;100.00
1616;BME280;801;47.982;7.810;2023-12-20T10:21:03;99179.34;;;7.21;100.00
1616;BME280;801;47.982;7.810;2023-12-20T10:23:32;99174.38;;;7.55;100.00
1616;BME280;801;47.982;7.810;2023-12-20T10:26:02;99186.75;;;7.38;100.00
1616;BME280;801;47.982;7.810;2023-12-20T10:28:33;99179.00;;;7.78;100.00
1616;BME280;801;47.982;7.810;2023-12-20T10:31:07;99168.78;;;7.57;100.00
1616;BME280;801;47.982;7.810;2023-12-20T10:33:45;99162.38;;;7.46;100.00
1616;BME280;801;47.982;7.810;2023-12-20T10:36:10;99159.16;;;7.56;100.00
1616;BME280;801;47.982;7.810;2023-12-20T10:38:51;99151.44;;;7.47;100.00
1616;BME280;801;47.982;7.810;2023-12-20T10:41:25;99158.81;;;7.34;100.00
1616;BME280;801;47.982;7.810;2023-12-20T10:43:55;99153.00;;;7.55;100.00
1616;BME280;801;47.982;7.810;2023-12-20T10:46:24;99141.59;;;7.60;100.00
1616;BME280;801;47.982;7.810;2023-12-20T10:48:57;99153.47;;;7.34;100.00
1616;BME280;801;47.982;7.810;2023-12-20T10:51:43;99151.75;;;7.21;100.00
1616;BME280;801;47.982;7.810;2023-12-20T10:54:21;99156.44;;;7.44;100.00
1616;BME280;801;47.982;7.810;2023-12-20T10:57:16;99158.16;;;7.20;100.00
1616;BME280;801;47.982;7.810;2023-12-20T11:00:03;99159.28;;;7.61;100.00
1616;BME280;801;47.982;7.810;2023-12-20T11:02:42;99162.50;;;7.51;100.00
1616;BME280;801;47.982;7.810;2023-12-20T11:05:36;99152.16;;;7.24;100.00
1616;BME280;801;47.982;7.810;2023-12-20T11:11:26;99157.75;;;8.61;100.00
1616;BME280;801;47.982;7.810;2023-12-20T11:14:14;99156.63;;;8.15;100.00
1616;BME280;801;47.982;7.810;2023-12-20T11:16:42;99149.81;;;8.30;100.00
1616;BME280;801;47.982;7.810;2023-12-20T11:19:22;99148.53;;;7.49;100.00
1616;BME280;801;47.982;7.810;2023-12-20T11:21:53;99138.88;;;8.56;100.00
1616;BME280;801;47.982;7.810;2023-12-20T11:24:26;99142.16;;;9.50;100.00
1616;BME280;801;47.982;7.810;2023-12-20T11:27:01;99145.84;;;9.90;100.00
1616;BME280;801;47.982;7.810;2023-12-20T11:29:32;99148.81;;;9.48;100.00
1616;BME280;801;47.982;7.810;2023-12-20T11:32:02;99152.16;;;9.55;98.91
1616;BME280;801;47.982;7.810;2023-12-20T11:34:36;99146.25;;;10.15;96.37
1616;BME280;801;47.982;7.810;2023-12-20T11:37:06;99149.03;;;11.15;93.06
1616;BME280;801;47.982;7.810;2023-12-20T11:39:38;99149.22;;;11.09;89.50
1616;BME280;801;47.982;7.810;2023-12-20T11:42:05;99146.28;;;10.49;93.02
1616;BME280;801;47.982;7.810;2023-12-20T11:44:33;99137.47;;;11.37;82.99
1616;BME280;801;47.982;7.810;2023-12-20T11:47:02;99137.22;;;10.22;85.13
1616;BME280;801;47.982;7.810;2023-12-20T11:49:29;99133.66;;;10.33;82.62
1616;BME280;801;47.982;7.810;2023-12-20T11:51:57;99137.09;;;10.45;80.76
1616;BME280;801;47.982;7.810;2023-12-20T11:54:25;99128.03;;;11.61;80.00
1616;BME280;801;47.982;7.810;2023-12-20T11:56:52;99122.34;;;11.58;76.20
1616;BME280;801;47.982;7.810;2023-12-20T11:59:18;99119.81;;;11.46;75.86
1616;BME280;801;47.982;7.810;2023-12-20T12:01:48;99121.06;;;11.38;75.03
1616;BME280;801;47.982;7.810;2023-12-20T12:04:15;99116.91;;;11.53;73.12
1616;BME280;801;47.982;7.810;2023-12-20T12:06:53;99133.41;;;11.12;71.58
1616;BME280;801;47.982;7.810;2023-12-20T12:09:26;99121.59;;;12.59;67.91
1616;BME280;801;47.982;7.810;2023-12-20T12:12:06;99128.06;;;13.11;65.56
1616;BME280;801;47.982;7.810;2023-12-20T12:14:39;99124.75;;;12.99;67.08
1616;BME280;801;47.982;7.810;2023-12-20T12:17:10;99115.91;;;12.56;65.73
1616;BME280;801;47.982;7.810;2023-12-20T12:19:43;99121.75;;;12.90;65.96
1616;BME280;801;47.982;7.810;2023-12-20T12:22:16;99118.22;;;12.79;65.46
1616;BME280;801;47.982;7.810;2023-12-20T12:24:54;99118.00;;;12.96;63.92
1616;BME280;801;47.982;7.810;2023-12-20T12:27:25;99123.22;;;12.60;61.78
1616;BME280;801;47.982;7.810;2023-12-20T12:30:04;99127.28;;;11.66;62.83
1616;BME280;801;47.982;7.810;2023-12-20T12:32:35;99126.34;;;11.28;65.42
1616;BME280;801;47.982;7.810;2023-12-20T12:35:04;99121.28;;;9.98;72.76
1616;BME280;801;47.982;7.810;2023-12-20T12:37:41;99127.69;;;9.23;80.27
1616;BME280;801;47.982;7.810;2023-12-20T12:40:16;99127.88;;;8.92;84.77
1616;BME280;801;47.982;7.810;2023-12-20T12:42:52;99133.41;;;10.51;75.74
1616;BME280;801;47.982;7.810;2023-12-20T12:45:26;99133.31;;;10.12;76.66
1616;BME280;801;47.982;7.810;2023-12-20T12:47:55;99126.22;;;10.06;75.79
1616;BME280;801;47.982;7.810;2023-12-20T12:50:23;99119.88;;;11.29;70.24
1616;BME280;801;47.982;7.810;2023-12-20T12:52:56;99128.13;;;9.60;79.46
1616;BME280;801;47.982;7.810;2023-12-20T12:55:37;99120.53;;;9.40;81.21
1616;BME280;801;47.982;7.810;2023-12-20T12:58:13;99117.44;;;8.67;81.32
1616;BME280;801;47.982;7.810;2023-12-20T13:00:49;99122.00;;;8.55;82.62
1616;BME280;801;47.982;7.810;2023-12-20T13:03:23;99116.63;;;8.43;83.26
1616;BME280;801;47.982;7.810;2023-12-20T13:05:52;99119.31;;;8.43;83.07
1616;BME280;801;47.982;7.810;2023-12-20T13:08:23;99110.19;;;8.68;84.32
1616;BME280;801;47.982;7.810;2023-12-20T13:11:09;99095.19;;;8.43;84.16
1616;BME280;801;47.982;7.810;2023-12-20T13:13:42;99104.38;;;8.36;87.28
1616;BME280;801;47.982;7.810;2023-12-20T13:16:11;99118.69;;;8.18;87.33
1616;BME280;801;47.982;7.810;2023-12-20T13:18:38;99104.72;;;8.27;88.91
1616;BME280;801;47.982;7.810;2023-12-20T13:21:09;99108.91;;;8.11;89.25
1616;BME280;801;47.982;7.810;2023-12-20T13:23:42;99112.28;;;7.95;89.60
1616;BME280;801;47.982;7.810;2023-12-20T13:26:14;99110.31;;;8.14;89.97
1616;BME280;801;47.982;7.810;2023-12-20T13:28:42;99108.69;;;8.25;89.44
1616;BME280;801;47.982;7.810;2023-12-20T13:32:11;99107.75;;;8.19;90.91
1616;BME280;801;47.982;7.810;2023-12-20T13:34:44;99103.91;;;8.15;92.49
1616;BME280;801;47.982;7.810;2023-12-20T13:37:13;99098.16;;;7.88;91.84
1616;BME280;801;47.982;7.810;2023-12-20T13:39:51;99100.72;;;7.83;92.59
1616;BME280;801;47.982;7.810;2023-12-20T13:45:17;99104.59;;;7.99;93.94
1616;BME280;801;47.982;7.810;2023-12-20T13:47:47;99099.38;;;8.16;94.67
1616;BME280;801;47.982;7.810;2023-12-20T13:50:19;99092.59;;;8.01;93.35